sensor_id;sensor_type;location;lat;lon;timestamp;P1;durP1;ratioP1;P2;durP2;ratioP2
11879;SDS011;5999;43.256;27.816;2022-10-18T00:01:04;8.17;;;4.47;;
11879;SDS011;5999;43.256;27.816;2022-10-18T00:03:32;11.00;;;5.10;;
11879;SDS011;5999;43.256;27.816;2022-10-18T00:06:00;7.93;;;4.97;;
11879;SDS011;5999;43.256;27.816;2022-10-18T00:08:27;6.93;;;4.73;;
11879;SDS011;5999;43.256;27.816;2022-10-18T00:10:54;7.23;;;4.67;;
11879;SDS011;5999;43.256;27.816;2022-10-18T00:13:21;6.50;;;4.80;;
11879;SDS011;5999;43.256;27.816;2022-10-18T00:15:49;8.93;;;5.60;;
11879;SDS011;5999;43.256;27.816;2022-10-18T00:18:17;9.27;;;5.27;;
11879;SDS011;5999;43.256;27.816;2022-10-18T00:20:44;10.70;;;4.80;;
11879;SDS011;5999;43.256;27.816;2022-10-18T00:23:20;7.53;;;5.07;;
11879;SDS011;5999;43.256;27.816;2022-10-18T00:25:47;7.83;;;4.90;;
11879;SDS011;5999;43.256;27.816;2022-10-18T00:28:14;8.23;;;4.80;;
11879;SDS011;5999;43.256;27.816;2022-10-18T00:30:41;13.03;;;5.50;;
11879;SDS011;5999;43.256;27.816;2022-10-18T00:33:08;11.53;;;5.10;;
11879;SDS011;5999;43.256;27.816;2022-10-18T00:35:34;8.03;;;5.00;;
11879;SDS011;5999;43.256;27.816;2022-10-18T00:38:01;8.43;;;5.77;;
11879;SDS011;5999;43.256;27.816;2022-10-18T00:40:29;11.63;;;5.67;;
11879;SDS011;5999;43.256;27.816;2022-10-18T00:42:56;6.90;;;5.03;;
11879;SDS011;5999;43.256;27.816;2022-10-18T00:45:23;9.30;;;4.73;;
11879;SDS011;5999;43.256;27.816;2022-10-18T00:47:54;7.37;;;5.40;;
11879;SDS011;5999;43.256;27.816;2022-10-18T00:50:24;10.93;;;5.30;;
11879;SDS011;5999;43.256;27.816;2022-10-18T00:52:55;10.73;;;5.43;;
11879;SDS011;5999;43.256;27.816;2022-10-18T00:55:25;8.87;;;5.53;;
11879;SDS011;5999;43.256;27.816;2022-10-18T00:57:56;7.93;;;5.10;;
11879;SDS011;5999;43.256;27.816;2022-10-18T01:00:23;9.57;;;5.30;;
11879;SDS011;5999;43.256;27.816;2022-10-18T01:02:50;8.83;;;4.60;;
11879;SDS011;5999;43.256;27.816;2022-10-18T01:05:17;7.13;;;4.47;;
11879;SDS011;5999;43.256;27.816;2022-10-18T01:07:50;12.33;;;4.43;;
11879;SDS011;5999;43.256;27.816;2022-10-18T01:10:33;4.70;;;4.17;;
11879;SDS011;5999;43.256;27.816;2022-10-18T01:13:13;8.40;;;4.53;;
11879;SDS011;5999;43.256;27.816;2022-10-18T01:15:59;7.50;;;4.40;;
11879;SDS011;5999;43.256;27.816;2022-10-18T01:18:33;5.80;;;4.37;;
11879;SDS011;5999;43.256;27.816;2022-10-18T01:21:13;8.90;;;4.33;;
11879;SDS011;5999;43.256;27.816;2022-10-18T01:23:57;7.20;;;4.37;;
11879;SDS011;5999;43.256;27.816;2022-10-18T01:26:55;10.03;;;4.00;;
11879;SDS011;5999;43.256;27.816;2022-10-18T01:29:49;7.60;;;4.60;;
11879;SDS011;5999;43.256;27.816;2022-10-18T01:32:25;7.40;;;4.40;;
11879;SDS011;5999;43.256;27.816;2022-10-18T01:34:54;7.57;;;4.13;;
11879;SDS011;5999;43.256;27.816;2022-10-18T01:37:26;8.50;;;4.43;;
11879;SDS011;5999;43.256;27.816;2022-10-18T01:39:55;5.90;;;3.90;;
11879;SDS011;5999;43.256;27.816;2022-10-18T01:42:24;7.23;;;4.40;;
11879;SDS011;5999;43.256;27.816;2022-10-18T01:44:52;6.03;;;4.37;;
11879;SDS011;5999;43.256;27.816;2022-10-18T01:47:20;4.70;;;3.70;;
11879;SDS011;5999;43.256;27.816;2022-10-18T01:49:48;6.37;;;4.00;;
11879;SDS011;5999;43.256;27.816;2022-10-18T01:52:21;5.10;;;3.80;;
11879;SDS011;5999;43.256;27.816;2022-10-18T01:54:47;8.07;;;4.10;;
11879;SDS011;5999;43.256;27.816;2022-10-18T01:57:16;5.00;;;3.63;;
11879;SDS011;5999;43.256;27.816;2022-10-18T01:59:50;5.37;;;3.83;;
11879;SDS011;5999;43.256;27.816;2022-10-18T02:02:27;6.00;;;3.80;;
11879;SDS011;5999;43.256;27.816;2022-10-18T02:05:05;5.00;;;3.73;;
11879;SDS011;5999;43.256;27.816;2022-10-18T02:07:40;7.17;;;3.90;;
11879;SDS011;5999;43.256;27.816;2022-10-18T02:10:13;6.73;;;3.60;;
11879;SDS011;5999;43.256;27.816;2022-10-18T02:12:46;5.70;;;3.43;;
11879;SDS011;5999;43.256;27.816;2022-10-18T02:15:16;5.80;;;3.20;;
11879;SDS011;5999;43.256;27.816;2022-10-18T02:17:46;5.07;;;3.70;;
11879;SDS011;5999;43.256;27.816;2022-10-18T02:20:16;9.77;;;3.80;;
11879;SDS011;5999;43.256;27.816;2022-10-18T02:22:47;7.77;;;3.30;;
11879;SDS011;5999;43.256;27.816;2022-10-18T02:25:16;6.07;;;3.10;;
11879;SDS011;5999;43.256;27.816;2022-10-18T02:27:47;4.97;;;3.30;;
11879;SDS011;5999;43.256;27.816;2022-10-18T02:30:14;5.50;;;4.00;;
11879;SDS011;5999;43.256;27.816;2022-10-18T02:32:43;7.20;;;4.07;;
11879;SDS011;5999;43.256;27.816;2022-10-18T02:35:16;6.33;;;3.80;;
11879;SDS011;5999;43.256;27.816;2022-10-18T02:37:45;6.77;;;3.70;;
11879;SDS011;5999;43.256;27.816;2022-10-18T02:40:14;5.57;;;4.10;;
11879;SDS011;5999;43.256;27.816;2022-10-18T02:42:43;4.60;;;3.87;;
11879;SDS011;5999;43.256;27.816;2022-10-18T02:45:12;10.20;;;3.60;;
11879;SDS011;5999;43.256;27.816;2022-10-18T02:47:39;8.90;;;4.20;;
11879;SDS011;5999;43.256;27.816;2022-10-18T02:50:06;6.53;;;3.83;;
11879;SDS011;5999;43.256;27.816;2022-10-18T02:52:34;6.03;;;3.60;;
11879;SDS011;5999;43.256;27.816;2022-10-18T02:55:01;5.37;;;4.33;;
11879;SDS011;5999;43.256;27.816;2022-10-18T02:57:29;8.80;;;4.80;;
11879;SDS011;5999;43.256;27.816;2022-10-18T02:59:56;7.43;;;4.73;;
11879;SDS011;5999;43.256;27.816;2022-10-18T03:02:23;7.87;;;4.50;;
11879;SDS011;5999;43.256;27.816;2022-10-18T03:04:49;8.67;;;4.87;;
11879;SDS011;5999;43.256;27.816;2022-10-18T03:07:16;5.57;;;4.20;;
11879;SDS011;5999;43.256;27.816;2022-10-18T03:09:44;7.70;;;4.90;;
11879;SDS011;5999;43.256;27.816;2022-10-18T03:12:11;5.43;;;4.60;;
11879;SDS011;5999;43.256;27.816;2022-10-18T03:14:37;7.90;;;4.67;;
11879;SDS011;5999;43.256;27.816;2022-10-18T03:17:04;7.30;;;4.70;;
11879;SDS011;5999;43.256;27.816;2022-10-18T03:19:31;7.97;;;4.63;;
11879;SDS011;5999;43.256;27.816;2022-10-18T03:21:58;8.53;;;5.00;;
11879;SDS011;5999;43.256;27.816;2022-10-18T03:24:25;10.57;;;5.00;;
11879;SDS011;5999;43.256;27.816;2022-10-18T03:26:52;8.03;;;4.70;;
11879;SDS011;5999;43.256;27.816;2022-10-18T03:29:19;7.13;;;4.87;;
11879;SDS011;5999;43.256;27.816;2022-10-18T03:31:46;9.97;;;5.47;;
11879;SDS011;5999;43.256;27.816;2022-10-18T03:34:13;6.70;;;5.13;;
11879;SDS011;5999;43.256;27.816;2022-10-18T03:36:41;6.43;;;4.97;;
11879;SDS011;5999;43.256;27.816;2022-10-18T03:39:08;7.33;;;5.40;;
11879;SDS011;5999;43.256;27.816;2022-10-18T03:41:35;9.13;;;5.93;;
11879;SDS011;5999;43.256;27.816;2022-10-18T03:44:03;10.17;;;5.50;;
11879;SDS011;5999;43.256;27.816;2022-10-18T03:46:30;6.70;;;5.10;;
11879;SDS011;5999;43.256;27.816;2022-10-18T03:48:56;7.70;;;5.23;;
11879;SDS011;5999;43.256;27.816;2022-10-18T03:51:23;10.07;;;5.33;;
11879;SDS011;5999;43.256;27.816;2022-10-18T03:53:50;9.03;;;5.73;;
11879;SDS011;5999;43.256;27.816;2022-10-18T03:56:17;12.60;;;6.17;;
11879;SDS011;5999;43.256;27.816;2022-10-18T03:58:44;7.83;;;6.03;;
11879;SDS011;5999;43.256;27.816;2022-10-18T04:01:11;9.43;;;6.03;;
11879;SDS011;5999;43.256;27.816;2022-10-18T04:03:38;10.00;;;6.53;;
11879;SDS011;5999;43.256;27.816;2022-10-18T04:06:05;8.20;;;5.53;;
11879;SDS011;5999;43.256;27.816;2022-10-18T04:08:33;9.00;;;6.30;;
11879;SDS011;5999;43.256;27.816;2022-10-18T04:11:03;10.87;;;6.80;;
11879;SDS011;5999;43.256;27.816;2022-10-18T04:13:32;10.10;;;6.90;;
11879;SDS011;5999;43.256;27.816;2022-10-18T04:15:59;9.47;;;6.87;;
11879;SDS011;5999;43.256;27.816;2022-10-18T04:18:27;10.63;;;7.00;;
11879;SDS011;5999;43.256;27.816;2022-10-18T04:20:53;12.33;;;7.70;;
11879;SDS011;5999;43.256;27.816;2022-10-18T04:23:20;10.70;;;6.90;;
11879;SDS011;5999;43.256;27.816;2022-10-18T04:25:47;16.00;;;7.70;;
11879;SDS011;5999;43.256;27.816;2022-10-18T04:28:14;12.57;;;7.50;;
11879;SDS011;5999;43.256;27.816;2022-10-18T04:30:41;9.73;;;7.57;;
11879;SDS011;5999;43.256;27.816;2022-10-18T04:33:08;11.77;;;8.20;;
11879;SDS011;5999;43.256;27.816;2022-10-18T04:35:35;12.13;;;8.13;;
11879;SDS011;5999;43.256;27.816;2022-10-18T04:38:02;11.10;;;7.60;;
11879;SDS011;5999;43.256;27.816;2022-10-18T04:40:29;13.70;;;8.23;;
11879;SDS011;5999;43.256;27.816;2022-10-18T04:42:56;16.33;;;10.80;;
11879;SDS011;5999;43.256;27.816;2022-10-18T04:45:23;21.80;;;11.07;;
11879;SDS011;5999;43.256;27.816;2022-10-18T04:47:50;17.53;;;11.40;;
11879;SDS011;5999;43.256;27.816;2022-10-18T04:50:17;16.53;;;10.67;;
11879;SDS011;5999;43.256;27.816;2022-10-18T04:52:47;14.67;;;9.50;;
11879;SDS011;5999;43.256;27.816;2022-10-18T04:55:14;17.03;;;9.37;;
11879;SDS011;5999;43.256;27.816;2022-10-18T04:57:41;11.30;;;8.07;;
11879;SDS011;5999;43.256;27.816;2022-10-18T05:00:08;9.97;;;8.07;;
11879;SDS011;5999;43.256;27.816;2022-10-18T05:02:35;8.60;;;6.73;;
11879;SDS011;5999;43.256;27.816;2022-10-18T05:05:02;14.40;;;7.60;;
11879;SDS011;5999;43.256;27.816;2022-10-18T05:07:30;9.73;;;7.50;;
11879;SDS011;5999;43.256;27.816;2022-10-18T05:09:57;11.47;;;7.03;;
11879;SDS011;5999;43.256;27.816;2022-10-18T05:12:24;9.33;;;6.50;;
11879;SDS011;5999;43.256;27.816;2022-10-18T05:14:51;12.73;;;7.10;;
11879;SDS011;5999;43.256;27.816;2022-10-18T05:17:17;9.90;;;6.93;;
11879;SDS011;5999;43.256;27.816;2022-10-18T05:19:44;8.40;;;6.40;;
11879;SDS011;5999;43.256;27.816;2022-10-18T05:22:11;9.87;;;6.80;;
11879;SDS011;5999;43.256;27.816;2022-10-18T05:24:38;11.90;;;6.47;;
11879;SDS011;5999;43.256;27.816;2022-10-18T05:27:05;13.70;;;7.07;;
11879;SDS011;5999;43.256;27.816;2022-10-18T05:29:34;11.00;;;6.33;;
11879;SDS011;5999;43.256;27.816;2022-10-18T05:32:01;18.33;;;7.50;;
11879;SDS011;5999;43.256;27.816;2022-10-18T05:34:28;11.67;;;6.47;;
11879;SDS011;5999;43.256;27.816;2022-10-18T05:36:56;7.93;;;6.20;;
11879;SDS011;5999;43.256;27.816;2022-10-18T05:39:23;8.67;;;5.60;;
11879;SDS011;5999;43.256;27.816;2022-10-18T05:41:50;7.03;;;5.87;;
11879;SDS011;5999;43.256;27.816;2022-10-18T05:44:18;9.50;;;5.77;;
11879;SDS011;5999;43.256;27.816;2022-10-18T05:46:45;8.00;;;4.60;;
11879;SDS011;5999;43.256;27.816;2022-10-18T05:49:12;9.43;;;5.30;;
11879;SDS011;5999;43.256;27.816;2022-10-18T05:51:39;6.57;;;3.90;;
11879;SDS011;5999;43.256;27.816;2022-10-18T05:54:06;10.40;;;4.53;;
11879;SDS011;5999;43.256;27.816;2022-10-18T05:56:34;7.07;;;3.97;;
11879;SDS011;5999;43.256;27.816;2022-10-18T05:59:01;7.32;;;3.67;;
11879;SDS011;5999;43.256;27.816;2022-10-18T06:01:32;5.15;;;3.90;;
11879;SDS011;5999;43.256;27.816;2022-10-18T06:03:59;8.02;;;3.97;;
11879;SDS011;5999;43.256;27.816;2022-10-18T06:06:26;5.10;;;3.72;;
11879;SDS011;5999;43.256;27.816;2022-10-18T06:08:53;4.53;;;3.33;;
11879;SDS011;5999;43.256;27.816;2022-10-18T06:11:19;5.60;;;3.75;;
11879;SDS011;5999;43.256;27.816;2022-10-18T06:13:47;5.40;;;3.67;;
11879;SDS011;5999;43.256;27.816;2022-10-18T06:16:16;4.40;;;3.50;;
11879;SDS011;5999;43.256;27.816;2022-10-18T06:18:46;4.70;;;3.80;;
11879;SDS011;5999;43.256;27.816;2022-10-18T06:21:14;6.03;;;3.50;;
11879;SDS011;5999;43.256;27.816;2022-10-18T06:23:41;8.63;;;3.72;;
11879;SDS011;5999;43.256;27.816;2022-10-18T06:26:09;5.13;;;3.08;;
11879;SDS011;5999;43.256;27.816;2022-10-18T06:28:36;6.85;;;3.40;;
11879;SDS011;5999;43.256;27.816;2022-10-18T06:31:04;6.93;;;3.60;;
11879;SDS011;5999;43.256;27.816;2022-10-18T06:33:32;7.93;;;3.40;;
11879;SDS011;5999;43.256;27.816;2022-10-18T06:36:04;4.88;;;3.60;;
11879;SDS011;5999;43.256;27.816;2022-10-18T06:38:33;5.57;;;3.25;;
11879;SDS011;5999;43.256;27.816;2022-10-18T06:41:00;6.82;;;3.85;;
11879;SDS011;5999;43.256;27.816;2022-10-18T06:43:27;6.80;;;3.78;;
11879;SDS011;5999;43.256;27.816;2022-10-18T06:45:54;8.43;;;3.53;;
11879;SDS011;5999;43.256;27.816;2022-10-18T06:48:21;5.40;;;3.55;;
11879;SDS011;5999;43.256;27.816;2022-10-18T06:50:52;11.68;;;3.42;;
11879;SDS011;5999;43.256;27.816;2022-10-18T06:53:21;7.13;;;3.03;;
11879;SDS011;5999;43.256;27.816;2022-10-18T06:55:49;7.38;;;3.50;;
11879;SDS011;5999;43.256;27.816;2022-10-18T06:58:16;6.43;;;3.00;;
11879;SDS011;5999;43.256;27.816;2022-10-18T07:00:43;5.95;;;2.88;;
11879;SDS011;5999;43.256;27.816;2022-10-18T07:03:11;5.40;;;2.95;;
11879;SDS011;5999;43.256;27.816;2022-10-18T07:05:37;8.70;;;4.13;;
11879;SDS011;5999;43.256;27.816;2022-10-18T07:08:04;7.68;;;3.13;;
11879;SDS011;5999;43.256;27.816;2022-10-18T07:10:32;6.80;;;3.50;;
11879;SDS011;5999;43.256;27.816;2022-10-18T07:12:59;4.40;;;2.80;;
11879;SDS011;5999;43.256;27.816;2022-10-18T07:15:25;6.95;;;3.28;;
11879;SDS011;5999;43.256;27.816;2022-10-18T07:17:53;5.57;;;2.95;;
11879;SDS011;5999;43.256;27.816;2022-10-18T07:20:20;4.22;;;2.80;;
11879;SDS011;5999;43.256;27.816;2022-10-18T07:22:47;7.80;;;3.08;;
11879;SDS011;5999;43.256;27.816;2022-10-18T07:25:14;4.57;;;2.80;;
11879;SDS011;5999;43.256;27.816;2022-10-18T07:27:41;7.63;;;3.13;;
11879;SDS011;5999;43.256;27.816;2022-10-18T07:30:11;4.95;;;2.58;;
11879;SDS011;5999;43.256;27.816;2022-10-18T07:32:38;4.82;;;2.85;;
11879;SDS011;5999;43.256;27.816;2022-10-18T07:35:05;5.70;;;2.53;;
11879;SDS011;5999;43.256;27.816;2022-10-18T07:37:32;4.78;;;2.53;;
11879;SDS011;5999;43.256;27.816;2022-10-18T07:39:59;8.05;;;2.80;;
11879;SDS011;5999;43.256;27.816;2022-10-18T07:42:26;6.50;;;2.72;;
11879;SDS011;5999;43.256;27.816;2022-10-18T07:44:53;5.55;;;2.50;;
11879;SDS011;5999;43.256;27.816;2022-10-18T07:47:20;4.70;;;2.58;;
11879;SDS011;5999;43.256;27.816;2022-10-18T07:49:47;8.32;;;3.08;;
11879;SDS011;5999;43.256;27.816;2022-10-18T07:52:14;5.93;;;2.70;;
11879;SDS011;5999;43.256;27.816;2022-10-18T07:54:41;5.47;;;2.47;;
11879;SDS011;5999;43.256;27.816;2022-10-18T07:57:08;6.43;;;2.42;;
11879;SDS011;5999;43.256;27.816;2022-10-18T07:59:34;4.32;;;2.63;;
11879;SDS011;5999;43.256;27.816;2022-10-18T08:02:03;7.65;;;2.95;;
11879;SDS011;5999;43.256;27.816;2022-10-18T08:04:30;4.55;;;2.83;;
11879;SDS011;5999;43.256;27.816;2022-10-18T08:06:57;4.88;;;2.70;;
11879;SDS011;5999;43.256;27.816;2022-10-18T08:09:24;6.50;;;2.40;;
11879;SDS011;5999;43.256;27.816;2022-10-18T08:11:51;6.90;;;2.95;;
11879;SDS011;5999;43.256;27.816;2022-10-18T08:14:17;9.85;;;2.85;;
11879;SDS011;5999;43.256;27.816;2022-10-18T08:16:44;2.75;;;2.40;;
11879;SDS011;5999;43.256;27.816;2022-10-18T08:19:12;6.05;;;2.40;;
11879;SDS011;5999;43.256;27.816;2022-10-18T08:21:38;5.75;;;2.60;;
11879;SDS011;5999;43.256;27.816;2022-10-18T08:24:05;5.18;;;2.53;;
11879;SDS011;5999;43.256;27.816;2022-10-18T08:26:32;5.57;;;2.15;;
11879;SDS011;5999;43.256;27.816;2022-10-18T08:28:59;6.82;;;2.50;;
11879;SDS011;5999;43.256;27.816;2022-10-18T08:31:26;3.60;;;2.05;;
11879;SDS011;5999;43.256;27.816;2022-10-18T08:33:53;4.65;;;2.20;;
11879;SDS011;5999;43.256;27.816;2022-10-18T08:36:21;3.53;;;1.90;;
11879;SDS011;5999;43.256;27.816;2022-10-18T08:38:48;3.40;;;2.55;;
11879;SDS011;5999;43.256;27.816;2022-10-18T08:41:23;4.70;;;2.20;;
11879;SDS011;5999;43.256;27.816;2022-10-18T08:43:59;1.88;;;1.35;;
11879;SDS011;5999;43.256;27.816;2022-10-18T08:46:31;2.92;;;1.70;;
11879;SDS011;5999;43.256;27.816;2022-10-18T08:48:59;2.95;;;1.55;;
11879;SDS011;5999;43.256;27.816;2022-10-18T08:51:30;3.47;;;1.35;;
11879;SDS011;5999;43.256;27.816;2022-10-18T08:54:03;3.35;;;1.40;;
11879;SDS011;5999;43.256;27.816;2022-10-18T08:56:35;2.75;;;1.60;;
11879;SDS011;5999;43.256;27.816;2022-10-18T08:59:08;3.33;;;1.70;;
11879;SDS011;5999;43.256;27.816;2022-10-18T09:01:37;3.30;;;1.33;;
11879;SDS011;5999;43.256;27.816;2022-10-18T09:07:07;3.42;;;1.50;;
11879;SDS011;5999;43.256;27.816;2022-10-18T09:09:47;4.53;;;1.65;;
11879;SDS011;5999;43.256;27.816;2022-10-18T09:12:31;2.38;;;1.17;;
11879;SDS011;5999;43.256;27.816;2022-10-18T09:15:19;1.70;;;1.15;;
11879;SDS011;5999;43.256;27.816;2022-10-18T09:18:05;5.78;;;1.50;;
11879;SDS011;5999;43.256;27.816;2022-10-18T09:20:46;4.07;;;1.25;;
11879;SDS011;5999;43.256;27.816;2022-10-18T09:23:19;5.97;;;1.85;;
11879;SDS011;5999;43.256;27.816;2022-10-18T09:25:47;3.40;;;2.20;;
11879;SDS011;5999;43.256;27.816;2022-10-18T09:28:23;2.65;;;1.65;;
11879;SDS011;5999;43.256;27.816;2022-10-18T09:30:59;3.08;;;1.33;;
11879;SDS011;5999;43.256;27.816;2022-10-18T09:33:38;2.67;;;1.42;;
11879;SDS011;5999;43.256;27.816;2022-10-18T09:36:14;4.75;;;1.30;;
11879;SDS011;5999;43.256;27.816;2022-10-18T09:38:47;3.85;;;1.63;;
11879;SDS011;5999;43.256;27.816;2022-10-18T09:41:17;5.65;;;1.30;;
11879;SDS011;5999;43.256;27.816;2022-10-18T09:43:53;8.18;;;1.38;;
11879;SDS011;5999;43.256;27.816;2022-10-18T09:46:23;2.58;;;1.58;;
11879;SDS011;5999;43.256;27.816;2022-10-18T09:48:55;3.85;;;1.30;;
11879;SDS011;5999;43.256;27.816;2022-10-18T09:51:27;2.53;;;1.40;;
11879;SDS011;5999;43.256;27.816;2022-10-18T09:54:05;1.67;;;1.20;;
11879;SDS011;5999;43.256;27.816;2022-10-18T09:56:43;4.40;;;1.38;;
11879;SDS011;5999;43.256;27.816;2022-10-18T09:59:26;3.67;;;1.20;;
11879;SDS011;5999;43.256;27.816;2022-10-18T10:01:56;2.50;;;0.93;;
11879;SDS011;5999;43.256;27.816;2022-10-18T10:04:23;3.13;;;1.38;;
11879;SDS011;5999;43.256;27.816;2022-10-18T10:06:51;3.97;;;1.27;;
11879;SDS011;5999;43.256;27.816;2022-10-18T10:09:23;3.15;;;1.15;;
11879;SDS011;5999;43.256;27.816;2022-10-18T10:11:53;4.15;;;1.20;;
11879;SDS011;5999;43.256;27.816;2022-10-18T10:14:22;6.25;;;1.40;;
11879;SDS011;5999;43.256;27.816;2022-10-18T10:16:51;4.53;;;1.45;;
11879;SDS011;5999;43.256;27.816;2022-10-18T10:19:30;3.45;;;2.22;;
11879;SDS011;5999;43.256;27.816;2022-10-18T10:22:01;5.45;;;1.05;;
11879;SDS011;5999;43.256;27.816;2022-10-18T10:24:36;3.60;;;1.40;;
11879;SDS011;5999;43.256;27.816;2022-10-18T10:27:15;2.25;;;1.40;;
11879;SDS011;5999;43.256;27.816;2022-10-18T10:29:52;5.97;;;1.48;;
11879;SDS011;5999;43.256;27.816;2022-10-18T10:32:24;3.15;;;1.35;;
11879;SDS011;5999;43.256;27.816;2022-10-18T10:34:53;2.33;;;1.38;;
11879;SDS011;5999;43.256;27.816;2022-10-18T10:37:25;5.97;;;1.30;;
11879;SDS011;5999;43.256;27.816;2022-10-18T10:40:04;2.50;;;1.30;;
11879;SDS011;5999;43.256;27.816;2022-10-18T10:42:47;5.93;;;1.25;;
11879;SDS011;5999;43.256;27.816;2022-10-18T10:45:20;3.45;;;1.48;;
11879;SDS011;5999;43.256;27.816;2022-10-18T10:47:48;1.33;;;1.20;;
11879;SDS011;5999;43.256;27.816;2022-10-18T10:50:21;4.57;;;1.15;;
11879;SDS011;5999;43.256;27.816;2022-10-18T10:52:50;4.45;;;1.63;;
11879;SDS011;5999;43.256;27.816;2022-10-18T10:55:19;2.15;;;1.33;;
11879;SDS011;5999;43.256;27.816;2022-10-18T10:57:51;3.17;;;1.30;;
11879;SDS011;5999;43.256;27.816;2022-10-18T11:00:39;2.88;;;1.38;;
11879;SDS011;5999;43.256;27.816;2022-10-18T11:03:10;2.30;;;1.00;;
11879;SDS011;5999;43.256;27.816;2022-10-18T11:05:44;1.80;;;1.10;;
11879;SDS011;5999;43.256;27.816;2022-10-18T11:08:14;2.40;;;1.02;;
11879;SDS011;5999;43.256;27.816;2022-10-18T11:10:48;0.50;;;0.50;;
11879;SDS011;5999;43.256;27.816;2022-10-18T11:13:29;4.25;;;1.45;;
11879;SDS011;5999;43.256;27.816;2022-10-18T11:16:07;3.70;;;1.38;;
11879;SDS011;5999;43.256;27.816;2022-10-18T11:18:40;1.77;;;1.20;;
11879;SDS011;5999;43.256;27.816;2022-10-18T11:21:12;2.80;;;1.42;;
11879;SDS011;5999;43.256;27.816;2022-10-18T11:23:43;2.45;;;1.13;;
11879;SDS011;5999;43.256;27.816;2022-10-18T11:26:32;8.23;;;1.70;;
11879;SDS011;5999;43.256;27.816;2022-10-18T11:29:24;1.80;;;1.10;;
11879;SDS011;5999;43.256;27.816;2022-10-18T11:32:06;1.60;;;1.17;;
11879;SDS011;5999;43.256;27.816;2022-10-18T11:34:42;5.20;;;1.60;;
11879;SDS011;5999;43.256;27.816;2022-10-18T11:37:35;6.88;;;1.30;;
11879;SDS011;5999;43.256;27.816;2022-10-18T11:40:28;2.28;;;1.10;;
11879;SDS011;5999;43.256;27.816;2022-10-18T11:43:22;2.28;;;1.00;;
11879;SDS011;5999;43.256;27.816;2022-10-18T11:45:56;3.75;;;1.83;;
11879;SDS011;5999;43.256;27.816;2022-10-18T11:48:41;3.22;;;1.42;;
11879;SDS011;5999;43.256;27.816;2022-10-18T11:51:26;1.98;;;1.27;;
11879;SDS011;5999;43.256;27.816;2022-10-18T11:54:13;3.25;;;1.38;;
11879;SDS011;5999;43.256;27.816;2022-10-18T11:56:55;2.65;;;1.45;;
11879;SDS011;5999;43.256;27.816;2022-10-18T11:59:34;5.55;;;1.23;;
11879;SDS011;5999;43.256;27.816;2022-10-18T12:02:13;4.25;;;1.40;;
11879;SDS011;5999;43.256;27.816;2022-10-18T12:04:57;3.08;;;1.30;;
11879;SDS011;5999;43.256;27.816;2022-10-18T12:07:27;3.65;;;1.35;;
11879;SDS011;5999;43.256;27.816;2022-10-18T12:09:58;4.50;;;1.27;;
11879;SDS011;5999;43.256;27.816;2022-10-18T12:12:28;2.90;;;1.27;;
11879;SDS011;5999;43.256;27.816;2022-10-18T12:15:00;2.78;;;1.58;;
11879;SDS011;5999;43.256;27.816;2022-10-18T12:17:31;4.22;;;1.35;;
11879;SDS011;5999;43.256;27.816;2022-10-18T12:20:02;3.03;;;1.27;;
11879;SDS011;5999;43.256;27.816;2022-10-18T12:22:37;3.10;;;1.30;;
11879;SDS011;5999;43.256;27.816;2022-10-18T12:25:09;5.30;;;1.75;;
11879;SDS011;5999;43.256;27.816;2022-10-18T12:27:38;4.30;;;1.30;;
11879;SDS011;5999;43.256;27.816;2022-10-18T12:30:13;2.35;;;1.20;;
11879;SDS011;5999;43.256;27.816;2022-10-18T12:32:45;7.32;;;1.55;;
11879;SDS011;5999;43.256;27.816;2022-10-18T12:35:14;3.72;;;1.50;;
11879;SDS011;5999;43.256;27.816;2022-10-18T12:40:41;1.67;;;1.35;;
11879;SDS011;5999;43.256;27.816;2022-10-18T12:43:16;3.25;;;1.30;;
11879;SDS011;5999;43.256;27.816;2022-10-18T12:45:48;2.55;;;1.35;;
11879;SDS011;5999;43.256;27.816;2022-10-18T12:48:26;2.90;;;1.40;;
11879;SDS011;5999;43.256;27.816;2022-10-18T12:50:58;1.88;;;1.20;;
11879;SDS011;5999;43.256;27.816;2022-10-18T12:53:30;4.00;;;1.60;;
11879;SDS011;5999;43.256;27.816;2022-10-18T13:02:24;5.57;;;1.20;;
11879;SDS011;5999;43.256;27.816;2022-10-18T13:04:55;2.05;;;1.27;;
11879;SDS011;5999;43.256;27.816;2022-10-18T13:07:31;3.88;;;1.60;;
11879;SDS011;5999;43.256;27.816;2022-10-18T13:13:23;3.25;;;1.45;;
11879;SDS011;5999;43.256;27.816;2022-10-18T13:16:20;1.27;;;1.02;;
11879;SDS011;5999;43.256;27.816;2022-10-18T13:18:56;5.07;;;1.35;;
11879;SDS011;5999;43.256;27.816;2022-10-18T13:21:32;2.75;;;1.35;;
11879;SDS011;5999;43.256;27.816;2022-10-18T13:24:11;3.60;;;1.20;;
11879;SDS011;5999;43.256;27.816;2022-10-18T13:26:50;6.82;;;1.42;;
11879;SDS011;5999;43.256;27.816;2022-10-18T13:29:42;2.05;;;1.13;;
11879;SDS011;5999;43.256;27.816;2022-10-18T13:32:22;1.05;;;0.95;;
11879;SDS011;5999;43.256;27.816;2022-10-18T13:34:54;3.60;;;1.70;;
11879;SDS011;5999;43.256;27.816;2022-10-18T13:37:21;3.95;;;1.15;;
11879;SDS011;5999;43.256;27.816;2022-10-18T13:39:50;3.03;;;1.20;;
11879;SDS011;5999;43.256;27.816;2022-10-18T13:42:37;2.55;;;1.30;;
11879;SDS011;5999;43.256;27.816;2022-10-18T13:54:12;2.05;;;1.15;;
11879;SDS011;5999;43.256;27.816;2022-10-18T13:57:06;5.20;;;1.48;;
11879;SDS011;5999;43.256;27.816;2022-10-18T14:00:07;2.83;;;1.10;;
11879;SDS011;5999;43.256;27.816;2022-10-18T14:06:00;5.10;;;1.30;;
11879;SDS011;5999;43.256;27.816;2022-10-18T14:08:33;1.25;;;1.13;;
11879;SDS011;5999;43.256;27.816;2022-10-18T14:11:05;1.67;;;1.35;;
11879;SDS011;5999;43.256;27.816;2022-10-18T14:13:47;3.17;;;1.30;;
11879;SDS011;5999;43.256;27.816;2022-10-18T14:16:26;1.98;;;1.33;;
11879;SDS011;5999;43.256;27.816;2022-10-18T14:19:01;13.07;;;1.77;;
11879;SDS011;5999;43.256;27.816;2022-10-18T14:21:38;2.67;;;1.45;;
11879;SDS011;5999;43.256;27.816;2022-10-18T14:26:45;1.50;;;1.10;;
11879;SDS011;5999;43.256;27.816;2022-10-18T14:29:15;2.13;;;1.40;;
11879;SDS011;5999;43.256;27.816;2022-10-18T14:31:48;3.08;;;1.23;;
11879;SDS011;5999;43.256;27.816;2022-10-18T14:34:17;2.78;;;1.20;;
11879;SDS011;5999;43.256;27.816;2022-10-18T14:36:45;3.35;;;1.15;;
11879;SDS011;5999;43.256;27.816;2022-10-18T14:39:16;2.10;;;1.40;;
11879;SDS011;5999;43.256;27.816;2022-10-18T14:41:47;3.17;;;1.52;;
11879;SDS011;5999;43.256;27.816;2022-10-18T14:44:16;1.45;;;1.17;;
11879;SDS011;5999;43.256;27.816;2022-10-18T14:46:46;5.30;;;1.25;;
11879;SDS011;5999;43.256;27.816;2022-10-18T14:49:14;3.08;;;1.35;;
11879;SDS011;5999;43.256;27.816;2022-10-18T14:51:44;14.65;;;2.42;;
11879;SDS011;5999;43.256;27.816;2022-10-18T14:54:14;4.88;;;1.50;;
11879;SDS011;5999;43.256;27.816;2022-10-18T14:56:44;3.47;;;1.77;;
11879;SDS011;5999;43.256;27.816;2022-10-18T14:59:14;4.28;;;1.85;;
11879;SDS011;5999;43.256;27.816;2022-10-18T15:01:49;4.68;;;1.92;;
11879;SDS011;5999;43.256;27.816;2022-10-18T15:04:18;4.32;;;2.40;;
11879;SDS011;5999;43.256;27.816;2022-10-18T15:06:47;6.18;;;2.08;;
11879;SDS011;5999;43.256;27.816;2022-10-18T15:09:14;5.25;;;1.95;;
11879;SDS011;5999;43.256;27.816;2022-10-18T15:11:47;5.50;;;1.65;;
11879;SDS011;5999;43.256;27.816;2022-10-18T15:14:15;5.93;;;1.90;;
11879;SDS011;5999;43.256;27.816;2022-10-18T15:16:44;4.97;;;2.40;;
11879;SDS011;5999;43.256;27.816;2022-10-18T15:19:25;4.03;;;2.13;;
11879;SDS011;5999;43.256;27.816;2022-10-18T15:21:54;4.75;;;2.40;;
11879;SDS011;5999;43.256;27.816;2022-10-18T15:24:27;6.00;;;2.30;;
11879;SDS011;5999;43.256;27.816;2022-10-18T15:26:58;4.47;;;2.40;;
11879;SDS011;5999;43.256;27.816;2022-10-18T15:29:33;5.78;;;2.20;;
11879;SDS011;5999;43.256;27.816;2022-10-18T15:32:07;5.60;;;2.00;;
11879;SDS011;5999;43.256;27.816;2022-10-18T15:34:40;4.93;;;2.17;;
11879;SDS011;5999;43.256;27.816;2022-10-18T15:37:17;5.72;;;2.30;;
11879;SDS011;5999;43.256;27.816;2022-10-18T15:46:00;2.28;;;1.77;;